Caspiana, Louisiana
Current Conditions -  °F | °C
As of 12:58 AM on Thursday 27 Nov 2014 (Local Time) from KBAD Reporting Station
Clear Clear  
Wind Chill: 40°   Ceiling: Unl
Heat Index: 45°   Visibility: 10mi
Dew Point: 33°   Wind: 9mph
Humidity: 64%   Direction: 320°NW
Pressure: 30.35"   Gusts: NA
Location:  32.3171°N, 93.6091°W
Report Text: KBAD 270658Z AUTO 32008KT 10SM CLR 07/01 A3035 RMK AO2 SLP280 T00710006
Loading
Personal Weather Stations






























Interactive Weather Map New forecast layout! Learn more

10-Day Weather Forecast

Advertisements
Track Severe Weather on mobile